createdAt,value
2022-10-04T00:01:50.607Z,77.50
2022-10-04T00:04:26.202Z,78.20
2022-10-04T00:06:56.936Z,77.80
2022-10-04T00:09:29.505Z,78.20
2022-10-04T00:11:57.994Z,78.30
2022-10-04T00:14:37.346Z,78.50
2022-10-04T00:17:21.585Z,78.30
2022-10-04T00:19:54.324Z,78.40
2022-10-04T00:22:31.175Z,79.60
2022-10-04T00:25:09.997Z,78.90
2022-10-04T00:27:41.286Z,78.70
2022-10-04T00:30:26.018Z,79.30
2022-10-04T00:33:04.961Z,79.10
2022-10-04T00:35:46.291Z,79.30
2022-10-04T00:38:25.125Z,79.90
2022-10-04T00:41:06.283Z,79.80
2022-10-04T00:43:39.857Z,79.60
2022-10-04T00:46:22.511Z,79.80
2022-10-04T00:48:55.024Z,79.50
2022-10-04T00:51:54.487Z,79.70
2022-10-04T00:54:42.283Z,79.60
2022-10-04T00:57:16.742Z,79.40
2022-10-04T00:59:58.096Z,79.80
2022-10-04T01:02:46.152Z,79.70
2022-10-04T01:05:21.741Z,79.30
2022-10-04T01:07:56.995Z,79.60
2022-10-04T01:10:34.093Z,79.80
2022-10-04T01:13:09.891Z,79.40
2022-10-04T01:15:43.173Z,79.80
2022-10-04T01:18:15.209Z,79.70
2022-10-04T01:21:02.986Z,79.80
2022-10-04T01:23:42.012Z,79.30
2022-10-04T01:26:32.216Z,79.80
2022-10-04T01:29:24.905Z,79.40
2022-10-04T01:31:55.117Z,79.30
2022-10-04T01:34:25.106Z,79.80
2022-10-04T01:36:55.371Z,79.90
2022-10-04T01:39:24.504Z,80.00
2022-10-04T01:42:01.048Z,80.00
2022-10-04T01:44:31.580Z,80.10
2022-10-04T01:47:04.348Z,80.00
2022-10-04T01:49:35.918Z,80.00
2022-10-04T01:52:06.203Z,80.10
2022-10-04T01:54:43.865Z,80.10
2022-10-04T01:57:24.762Z,80.30
2022-10-04T02:00:01.499Z,79.50
2022-10-04T02:02:31.607Z,79.70
2022-10-04T02:05:01.684Z,79.70
2022-10-04T02:07:32.728Z,79.90
2022-10-04T02:10:04.861Z,79.80
2022-10-04T02:12:34.140Z,79.90
2022-10-04T02:15:06.318Z,80.10
2022-10-04T02:17:40.467Z,80.00
2022-10-04T02:20:21.965Z,79.80
2022-10-04T02:22:56.520Z,79.90
2022-10-04T02:25:23.926Z,80.10
2022-10-04T02:27:53.932Z,80.10
2022-10-04T02:30:21.932Z,80.00
2022-10-04T02:33:02.946Z,80.20
2022-10-04T02:35:44.157Z,80.00
2022-10-04T02:38:22.570Z,80.00
2022-10-04T02:40:54.278Z,79.70
2022-10-04T02:43:33.665Z,79.90
2022-10-04T02:46:14.311Z,80.00
2022-10-04T02:48:48.844Z,79.90
2022-10-04T02:51:36.404Z,79.80
2022-10-04T02:54:27.738Z,79.60
2022-10-04T02:56:56.632Z,80.00
2022-10-04T02:59:27.380Z,80.10
2022-10-04T03:02:00.331Z,80.20
2022-10-04T03:04:33.717Z,80.30
2022-10-04T03:07:08.947Z,80.30
2022-10-04T03:09:40.367Z,80.30
2022-10-04T03:12:12.430Z,80.40
2022-10-04T03:14:40.284Z,80.50
2022-10-04T03:17:08.103Z,80.60
2022-10-04T03:19:38.695Z,80.60
2022-10-04T03:22:14.751Z,80.60
2022-10-04T03:24:46.951Z,80.40
2022-10-04T03:27:24.990Z,80.60
2022-10-04T03:29:59.223Z,80.60
2022-10-04T03:32:30.744Z,80.80
2022-10-04T03:34:59.164Z,80.80
2022-10-04T03:37:29.442Z,80.90
2022-10-04T03:39:58.140Z,81.00
2022-10-04T03:42:30.305Z,81.10
2022-10-04T03:45:04.093Z,81.30
2022-10-04T03:47:37.699Z,81.30
2022-10-04T03:50:13.017Z,81.50
2022-10-04T03:52:46.111Z,81.30
2022-10-04T03:55:16.211Z,81.50
2022-10-04T03:57:46.114Z,81.40
2022-10-04T04:00:18.611Z,81.50
2022-10-04T04:02:56.649Z,81.40
2022-10-04T04:05:29.793Z,81.40
2022-10-04T04:08:14.367Z,81.50
2022-10-04T04:10:50.302Z,81.30
2022-10-04T04:13:36.430Z,81.40
2022-10-04T04:16:07.039Z,81.10
2022-10-04T04:18:37.817Z,81.70
2022-10-04T04:21:08.069Z,81.70
2022-10-04T04:23:48.763Z,81.80
2022-10-04T04:26:31.393Z,81.60
2022-10-04T04:29:03.772Z,81.70
2022-10-04T04:31:46.190Z,81.70
2022-10-04T04:34:24.871Z,81.80
2022-10-04T04:36:58.888Z,81.60
2022-10-04T04:39:44.807Z,81.80
2022-10-04T04:42:32.096Z,81.90
2022-10-04T04:45:06.260Z,81.50
2022-10-04T04:47:47.095Z,81.90
2022-10-04T04:50:18.214Z,81.70
2022-10-04T04:52:50.376Z,81.90
2022-10-04T04:55:39.911Z,81.90
2022-10-04T04:58:29.661Z,81.90
2022-10-04T05:01:03.436Z,81.90
2022-10-04T05:03:31.301Z,81.90
2022-10-04T05:06:00.964Z,82.10
2022-10-04T05:08:30.672Z,82.10
2022-10-04T05:11:00.320Z,82.10
2022-10-04T05:13:39.024Z,82.10
2022-10-04T05:16:21.101Z,81.90
2022-10-04T05:18:48.973Z,82.20
2022-10-04T05:21:27.204Z,82.60
2022-10-04T05:23:57.475Z,82.70
2022-10-04T05:26:32.105Z,83.10
2022-10-04T05:29:15.224Z,83.60
2022-10-04T05:31:50.150Z,83.00
2022-10-04T05:34:30.592Z,83.60
2022-10-04T05:37:00.838Z,83.20
2022-10-04T05:39:50.888Z,83.50
2022-10-04T05:42:30.323Z,83.70
2022-10-04T05:44:58.501Z,84.00
2022-10-04T05:47:30.893Z,84.10
2022-10-04T05:50:00.067Z,84.20
2022-10-04T05:52:36.000Z,85.20
2022-10-04T05:55:28.640Z,84.10
2022-10-04T05:58:06.510Z,84.00
2022-10-04T06:00:51.917Z,84.00
2022-10-04T06:03:46.789Z,84.20
2022-10-04T06:06:13.975Z,84.40
2022-10-04T06:08:52.259Z,85.20
2022-10-04T06:11:47.236Z,85.30
2022-10-04T06:14:24.712Z,84.70
2022-10-04T06:17:17.993Z,84.80
2022-10-04T06:19:51.243Z,84.80
2022-10-04T06:22:22.883Z,85.70
2022-10-04T06:24:56.002Z,85.40
2022-10-04T06:27:41.065Z,85.40
2022-10-04T06:30:17.262Z,85.50
2022-10-04T06:33:05.221Z,84.80
2022-10-04T06:35:51.112Z,84.60
2022-10-04T06:38:47.130Z,84.30
2022-10-04T06:41:41.218Z,84.70
2022-10-04T06:44:36.807Z,84.90
2022-10-04T06:47:30.022Z,83.90
2022-10-04T06:50:12.310Z,84.20
2022-10-04T06:52:48.794Z,85.00
2022-10-04T06:55:21.860Z,84.90
2022-10-04T06:58:02.506Z,84.80
2022-10-04T07:00:54.162Z,85.20
2022-10-04T07:03:39.829Z,85.30
2022-10-04T07:06:11.394Z,84.90
2022-10-04T07:08:52.644Z,85.70
2022-10-04T07:11:37.331Z,84.90
2022-10-04T07:14:04.603Z,85.90
2022-10-04T07:16:37.223Z,86.80
2022-10-04T07:19:23.817Z,86.70
2022-10-04T07:21:57.185Z,85.50
2022-10-04T07:24:36.162Z,85.40
2022-10-04T07:27:04.497Z,85.40
2022-10-04T07:29:41.828Z,85.30
2022-10-04T07:32:26.212Z,85.10
2022-10-04T07:35:04.925Z,84.90
2022-10-04T07:37:45.077Z,85.10
2022-10-04T07:40:24.862Z,85.60
2022-10-04T07:43:00.424Z,85.30
2022-10-04T07:45:39.859Z,85.10
2022-10-04T07:48:19.854Z,85.20
2022-10-04T07:51:28.127Z,85.60
2022-10-04T07:54:24.699Z,84.60
2022-10-04T07:56:59.483Z,84.40
2022-10-04T07:59:40.583Z,85.40
2022-10-04T08:02:24.031Z,85.10
2022-10-04T08:05:04.054Z,84.50
2022-10-04T08:08:03.702Z,84.50
2022-10-04T08:10:57.115Z,83.20
2022-10-04T08:13:39.999Z,83.90
2022-10-04T08:16:21.016Z,84.20
2022-10-04T08:19:06.563Z,83.00
2022-10-04T08:21:54.940Z,82.90
2022-10-04T08:25:03.761Z,83.10
2022-10-04T08:28:08.767Z,82.70
2022-10-04T08:31:13.273Z,82.80
2022-10-04T08:33:55.209Z,82.60
2022-10-04T08:37:01.903Z,82.80
2022-10-04T08:39:41.723Z,81.30
2022-10-04T08:42:29.696Z,81.30
2022-10-04T08:45:16.948Z,82.60
2022-10-04T08:47:50.296Z,81.80
2022-10-04T08:50:45.756Z,82.70
2022-10-04T08:53:22.028Z,81.90
2022-10-04T08:56:26.639Z,83.40
2022-10-04T08:59:10.059Z,81.80
2022-10-04T09:02:15.770Z,82.90
2022-10-04T09:05:15.344Z,81.10
2022-10-04T09:07:51.553Z,80.40
2022-10-04T09:10:45.199Z,81.20
2022-10-04T09:13:34.225Z,80.20
2022-10-04T09:16:39.896Z,80.80
2022-10-04T09:19:20.996Z,80.60
2022-10-04T09:22:14.728Z,80.80
2022-10-04T09:24:56.610Z,78.70
2022-10-04T09:27:54.234Z,78.00
2022-10-04T09:31:07.246Z,76.30
2022-10-04T09:34:17.169Z,76.80
2022-10-04T09:37:05.359Z,77.20
2022-10-04T09:40:00.484Z,77.80
2022-10-04T09:42:39.900Z,77.20
2022-10-04T09:45:28.818Z,76.60
2022-10-04T09:48:30.064Z,78.70
2022-10-04T09:51:07.999Z,75.60
2022-10-04T09:54:04.247Z,76.90
2022-10-04T09:57:22.444Z,76.00
2022-10-04T09:59:58.952Z,74.20
2022-10-04T10:02:42.675Z,75.50
2022-10-04T10:05:23.593Z,71.80
2022-10-04T10:08:11.188Z,72.80
2022-10-04T10:11:23.136Z,71.90
2022-10-04T10:14:08.237Z,69.10
2022-10-04T10:17:01.117Z,69.50
2022-10-04T10:19:37.085Z,68.40
2022-10-04T10:22:42.708Z,68.40
2022-10-04T10:25:28.869Z,69.50
2022-10-04T10:28:17.887Z,67.20
2022-10-04T10:30:53.841Z,64.00
2022-10-04T10:33:39.775Z,61.80
2022-10-04T10:36:27.108Z,61.30
2022-10-04T10:38:55.151Z,61.60
2022-10-04T10:41:53.433Z,61.20
2022-10-04T10:44:22.703Z,60.60
2022-10-04T10:47:05.395Z,61.00
2022-10-04T10:49:52.875Z,58.90
2022-10-04T10:52:57.394Z,60.00
2022-10-04T10:55:30.620Z,56.70
2022-10-04T10:58:00.864Z,58.00
2022-10-04T11:00:58.221Z,58.20
2022-10-04T11:03:54.717Z,56.00
2022-10-04T11:06:49.901Z,57.10
2022-10-04T11:09:57.472Z,57.60
2022-10-04T11:12:52.640Z,57.10
2022-10-04T11:15:44.296Z,57.40
2022-10-04T11:18:17.725Z,52.80
2022-10-04T11:21:08.460Z,56.10
2022-10-04T11:23:44.898Z,54.90
2022-10-04T11:26:32.379Z,55.90
2022-10-04T11:29:23.417Z,56.00
2022-10-04T11:32:20.896Z,55.50
2022-10-04T11:35:08.825Z,56.30
2022-10-04T11:37:43.594Z,56.60
2022-10-04T11:40:23.873Z,55.90
2022-10-04T11:43:06.383Z,56.80
2022-10-04T11:46:01.719Z,56.20
2022-10-04T11:48:41.065Z,56.30
2022-10-04T11:51:44.939Z,54.50
2022-10-04T11:54:43.098Z,54.90
2022-10-04T11:57:26.873Z,54.90
2022-10-04T12:00:17.174Z,56.90
2022-10-04T12:02:47.611Z,53.80
2022-10-04T12:05:38.865Z,51.90
2022-10-04T12:08:23.661Z,53.30
2022-10-04T12:11:50.674Z,55.90
2022-10-04T12:14:28.881Z,53.60
2022-10-04T12:17:19.713Z,53.30
2022-10-04T12:20:08.673Z,52.90
2022-10-04T12:22:47.859Z,52.40
2022-10-04T12:25:29.185Z,50.10
2022-10-04T12:28:17.884Z,51.30
2022-10-04T12:31:12.434Z,51.70
2022-10-04T12:33:54.037Z,50.30
2022-10-04T12:36:44.261Z,46.60
2022-10-04T12:39:50.287Z,46.60
2022-10-04T12:42:40.764Z,47.90
2022-10-04T12:45:26.000Z,45.90
2022-10-04T12:47:56.012Z,45.10
2022-10-04T12:50:48.050Z,43.30
2022-10-04T12:53:54.454Z,42.70
2022-10-04T12:56:37.280Z,42.50
2022-10-04T12:59:11.059Z,40.60
2022-10-04T13:01:58.585Z,48.20
2022-10-04T13:04:39.142Z,42.00
2022-10-04T13:07:26.187Z,37.90
2022-10-04T13:10:22.997Z,38.10
2022-10-04T13:13:16.418Z,37.20
2022-10-04T13:19:14.617Z,37.60
2022-10-04T13:21:52.855Z,38.20
2022-10-04T13:25:00.376Z,39.40
2022-10-04T13:27:38.389Z,39.70
2022-10-04T13:30:31.412Z,39.60
2022-10-04T13:33:35.785Z,40.40
2022-10-04T13:36:20.313Z,40.80
2022-10-04T13:38:59.570Z,41.60
2022-10-04T13:41:43.649Z,43.30
2022-10-04T13:44:23.254Z,42.70
2022-10-04T13:47:14.070Z,44.10
2022-10-04T13:49:59.747Z,43.50
2022-10-04T13:53:05.876Z,43.90
2022-10-04T13:56:13.132Z,45.30
2022-10-04T13:59:00.700Z,45.30
2022-10-04T14:01:52.702Z,47.10
2022-10-04T14:04:35.042Z,46.80
2022-10-04T14:07:20.538Z,48.10
2022-10-04T14:09:53.912Z,48.50
2022-10-04T14:12:49.163Z,47.70
2022-10-04T14:15:35.225Z,47.40
2022-10-04T14:18:29.734Z,48.00
2022-10-04T14:21:32.738Z,47.20
2022-10-04T14:24:42.636Z,47.30
2022-10-04T14:27:34.582Z,46.90
2022-10-04T14:30:23.621Z,46.70
2022-10-04T14:32:53.070Z,46.20
2022-10-04T14:35:23.518Z,47.50
2022-10-04T14:38:12.044Z,47.30
2022-10-04T14:41:00.696Z,46.30
2022-10-04T14:44:07.022Z,46.50
2022-10-04T14:47:13.706Z,46.20
2022-10-04T14:49:43.927Z,46.20
2022-10-04T14:52:32.487Z,47.60
2022-10-04T14:55:10.834Z,48.60
2022-10-04T14:57:59.345Z,48.80
2022-10-04T15:00:57.747Z,48.70
2022-10-04T15:03:36.328Z,49.20
2022-10-04T15:06:21.344Z,48.40
2022-10-04T15:08:54.035Z,47.60
2022-10-04T15:11:42.499Z,47.20
2022-10-04T15:14:35.675Z,48.40
2022-10-04T15:17:34.646Z,48.00
2022-10-04T15:20:20.147Z,47.90
2022-10-04T15:22:55.815Z,47.50
2022-10-04T15:25:44.503Z,47.70
2022-10-04T15:28:35.225Z,47.40
2022-10-04T15:31:21.275Z,50.10
2022-10-04T15:34:07.369Z,49.90
2022-10-04T15:36:43.599Z,50.50
2022-10-04T15:39:45.588Z,49.40
2022-10-04T15:42:25.028Z,49.00
2022-10-04T15:44:55.342Z,49.70
2022-10-04T15:47:49.471Z,50.30
2022-10-04T15:50:53.968Z,50.90
2022-10-04T15:54:05.811Z,51.70
2022-10-04T15:57:00.504Z,53.40
2022-10-04T15:59:42.482Z,52.40
2022-10-04T16:02:28.055Z,51.30
2022-10-04T16:05:13.059Z,51.90
2022-10-04T16:07:50.213Z,51.10
2022-10-04T16:10:31.148Z,52.20
2022-10-04T16:13:27.616Z,52.10
2022-10-04T16:16:18.269Z,52.10
2022-10-04T16:18:54.590Z,52.40
2022-10-04T16:21:31.163Z,52.70
2022-10-04T16:24:20.015Z,53.00
2022-10-04T16:26:47.764Z,53.50
2022-10-04T16:30:08.022Z,53.50
2022-10-04T16:33:13.697Z,53.50
2022-10-04T16:36:02.497Z,53.90
2022-10-04T16:38:36.104Z,54.20
2022-10-04T16:41:27.521Z,54.30
2022-10-04T16:43:59.093Z,54.80
2022-10-04T16:46:47.360Z,55.10
2022-10-04T16:49:24.474Z,55.00
2022-10-04T16:52:03.231Z,55.70
2022-10-04T16:54:42.978Z,55.90
2022-10-04T16:57:22.506Z,56.00
2022-10-04T17:00:19.972Z,56.10
2022-10-04T17:03:02.181Z,56.20
2022-10-04T17:05:53.282Z,56.30
2022-10-04T17:08:32.954Z,56.60
2022-10-04T17:11:33.839Z,56.70
2022-10-04T17:14:49.353Z,56.90
2022-10-04T17:17:24.718Z,57.30
2022-10-04T17:20:02.182Z,57.50
2022-10-04T17:22:53.716Z,57.80
2022-10-04T17:25:30.030Z,58.00
2022-10-04T17:28:10.763Z,58.00
2022-10-04T17:30:57.307Z,58.00
2022-10-04T17:33:54.219Z,58.10
2022-10-04T17:36:41.728Z,58.40
2022-10-04T17:39:50.344Z,58.50
2022-10-04T17:42:26.830Z,58.50
2022-10-04T17:45:31.717Z,58.90
2022-10-04T17:48:32.946Z,58.80
2022-10-04T17:51:19.036Z,59.20
2022-10-04T17:54:10.575Z,59.20
2022-10-04T17:56:49.332Z,59.20
2022-10-04T17:59:31.214Z,59.00
2022-10-04T18:02:17.346Z,59.30
2022-10-04T18:05:14.758Z,59.50
2022-10-04T18:07:48.096Z,59.50
2022-10-04T18:10:28.362Z,59.70
2022-10-04T18:13:13.003Z,59.80
2022-10-04T18:15:48.662Z,59.90
2022-10-04T18:18:18.884Z,60.00
2022-10-04T18:21:20.276Z,59.90
2022-10-04T18:23:59.448Z,60.30
2022-10-04T18:26:30.336Z,60.40
2022-10-04T18:29:00.782Z,60.30
2022-10-04T18:31:39.898Z,60.70
2022-10-04T18:34:28.553Z,60.90
2022-10-04T18:37:15.493Z,61.10
2022-10-04T18:39:53.114Z,61.00
2022-10-04T18:42:35.267Z,61.30
2022-10-04T18:45:23.748Z,61.00
2022-10-04T18:47:52.157Z,62.00
2022-10-04T18:50:36.124Z,61.50
2022-10-04T18:53:03.381Z,61.80
2022-10-04T18:56:07.653Z,62.00
2022-10-04T18:59:31.773Z,62.00
2022-10-04T19:02:12.709Z,62.10
2022-10-04T19:05:14.491Z,62.30
2022-10-04T19:07:50.548Z,62.60
2022-10-04T19:10:26.585Z,62.60
2022-10-04T19:13:14.805Z,62.70
2022-10-04T19:15:51.816Z,62.80
2022-10-04T19:18:34.004Z,63.10
2022-10-04T19:21:35.090Z,63.10
2022-10-04T19:24:35.820Z,63.50
2022-10-04T19:27:21.621Z,63.40
2022-10-04T19:30:02.548Z,63.30
2022-10-04T19:32:44.849Z,63.60
2022-10-04T19:35:35.090Z,63.40
2022-10-04T19:38:29.506Z,63.60
2022-10-04T19:41:10.682Z,63.50
2022-10-04T19:43:52.703Z,63.60
2022-10-04T19:46:22.330Z,63.90
2022-10-04T19:48:52.359Z,63.90
2022-10-04T19:51:34.045Z,64.00
2022-10-04T19:54:15.675Z,64.30
2022-10-04T19:56:52.836Z,64.50
2022-10-04T19:59:40.647Z,64.50
2022-10-04T20:02:14.289Z,64.70
2022-10-04T20:04:43.681Z,64.60
2022-10-04T20:07:28.052Z,64.50
2022-10-04T20:10:23.059Z,64.80
2022-10-04T20:13:10.738Z,64.90
2022-10-04T20:15:38.534Z,65.50
2022-10-04T20:18:33.783Z,64.90
2022-10-04T20:21:01.508Z,65.10
2022-10-04T20:23:40.693Z,64.90
2022-10-04T20:26:11.690Z,65.30
2022-10-04T20:28:44.224Z,65.10
2022-10-04T20:31:36.354Z,65.10
2022-10-04T20:34:31.906Z,65.40
2022-10-04T20:37:01.613Z,65.50
2022-10-04T20:39:41.289Z,65.50
2022-10-04T20:42:30.046Z,65.90
2022-10-04T20:45:09.151Z,65.70
2022-10-04T20:47:46.401Z,65.80
2022-10-04T20:50:15.630Z,65.90
2022-10-04T20:53:13.988Z,65.80
2022-10-04T20:55:44.207Z,66.00
2022-10-04T20:58:35.168Z,65.80
2022-10-04T21:01:16.974Z,65.90
2022-10-04T21:03:44.324Z,65.80
2022-10-04T21:06:13.800Z,65.80
2022-10-04T21:08:45.475Z,65.60
2022-10-04T21:11:21.177Z,65.60
2022-10-04T21:13:58.636Z,65.80
2022-10-04T21:16:39.753Z,65.70
2022-10-04T21:19:43.134Z,66.10
2022-10-04T21:22:16.308Z,66.20
2022-10-04T21:24:49.631Z,65.80
2022-10-04T21:27:39.640Z,65.90
2022-10-04T21:30:27.257Z,66.40
2022-10-04T21:32:54.512Z,66.40
2022-10-04T21:35:21.769Z,66.00
2022-10-04T21:37:49.006Z,66.00
2022-10-04T21:40:19.088Z,66.20
2022-10-04T21:42:48.784Z,66.40
2022-10-04T21:45:16.073Z,66.60
2022-10-04T21:47:45.740Z,66.60
2022-10-04T21:50:15.888Z,66.70
2022-10-04T21:52:45.519Z,66.60
2022-10-04T21:55:15.036Z,66.40
2022-10-04T21:57:45.147Z,66.50
2022-10-04T22:00:12.880Z,66.60
2022-10-04T22:02:40.247Z,66.70
2022-10-04T22:05:09.949Z,66.70
2022-10-04T22:07:37.216Z,66.80
2022-10-04T22:10:07.245Z,66.80
2022-10-04T22:12:39.051Z,67.00
2022-10-04T22:15:09.098Z,67.00
2022-10-04T22:17:41.223Z,67.00
2022-10-04T22:20:08.874Z,66.80
2022-10-04T22:22:39.695Z,66.90
2022-10-04T22:25:19.299Z,67.10
2022-10-04T22:27:49.709Z,67.50
2022-10-04T22:30:31.149Z,67.30
2022-10-04T22:33:04.370Z,67.60
2022-10-04T22:35:36.067Z,67.50
2022-10-04T22:38:09.108Z,67.50
2022-10-04T22:40:37.001Z,67.60
2022-10-04T22:43:04.374Z,68.20
2022-10-04T22:45:35.053Z,67.70
2022-10-04T22:48:11.181Z,67.80
2022-10-04T22:50:38.757Z,67.90
2022-10-04T22:53:19.329Z,67.80
2022-10-04T22:55:51.798Z,67.90
2022-10-04T22:58:21.115Z,67.70
2022-10-04T23:00:51.013Z,67.90
2022-10-04T23:03:31.498Z,68.00
2022-10-04T23:06:02.739Z,68.00
2022-10-04T23:08:30.769Z,67.80
2022-10-04T23:11:00.489Z,67.90
2022-10-04T23:13:30.238Z,68.10
2022-10-04T23:16:10.660Z,68.00
2022-10-04T23:18:38.009Z,68.10
2022-10-04T23:21:24.111Z,68.00
2022-10-04T23:23:55.368Z,68.10
2022-10-04T23:26:31.598Z,68.00
2022-10-04T23:28:59.279Z,68.00
2022-10-04T23:31:29.419Z,67.90
2022-10-04T23:33:58.939Z,67.80
2022-10-04T23:36:26.296Z,67.90
2022-10-04T23:39:01.589Z,67.80
2022-10-04T23:41:29.152Z,67.90
2022-10-04T23:43:56.427Z,67.80
2022-10-04T23:46:26.493Z,67.80
2022-10-04T23:48:53.910Z,67.90
2022-10-04T23:51:23.693Z,68.00
2022-10-04T23:53:51.011Z,68.10
2022-10-04T23:56:27.668Z,67.90
2022-10-04T23:58:58.116Z,68.10
